createdAt,value
2018-08-03T00:01:26.925Z,11.03
2018-08-03T00:03:54.165Z,12.53
2018-08-03T00:06:24.630Z,13.83
2018-08-03T00:08:51.960Z,11.48
2018-08-03T00:11:19.128Z,11.33
2018-08-03T00:13:46.287Z,11.28
2018-08-03T00:16:13.477Z,12.18
2018-08-03T00:18:40.657Z,12.33
2018-08-03T00:21:08.009Z,12.53
2018-08-03T00:23:35.180Z,10.90
2018-08-03T00:26:02.357Z,15.43
2018-08-03T00:28:29.528Z,10.35
2018-08-03T00:30:56.708Z,12.70
2018-08-03T00:33:23.872Z,11.68
2018-08-03T00:35:51.033Z,11.97
2018-08-03T00:38:18.321Z,12.30
2018-08-03T00:40:45.497Z,12.23
2018-08-03T00:43:12.664Z,13.43
2018-08-03T00:45:39.848Z,13.45
2018-08-03T00:48:07.007Z,12.55
2018-08-03T00:50:34.192Z,13.62
2018-08-03T00:53:01.361Z,15.95
2018-08-03T00:55:28.536Z,15.53
2018-08-03T00:57:55.716Z,14.50
2018-08-03T01:00:22.881Z,14.38
2018-08-03T01:02:50.059Z,13.05
2018-08-03T01:05:17.246Z,13.35
2018-08-03T01:07:44.512Z,15.93
2018-08-03T01:10:11.680Z,13.30
2018-08-03T01:12:38.866Z,13.38
2018-08-03T01:15:06.192Z,14.23
2018-08-03T01:17:33.373Z,14.65
2018-08-03T01:20:00.535Z,14.23
2018-08-03T01:22:27.735Z,13.75
2018-08-03T01:24:55.020Z,14.13
2018-08-03T01:27:22.185Z,15.15
2018-08-03T01:29:49.363Z,14.00
2018-08-03T01:32:16.532Z,11.12
2018-08-03T01:34:43.701Z,9.80
2018-08-03T01:37:10.900Z,12.15
2018-08-03T01:39:38.057Z,10.72
2018-08-03T01:42:05.211Z,10.38
2018-08-03T01:44:32.380Z,12.95
2018-08-03T01:46:59.541Z,12.05
2018-08-03T01:49:26.728Z,14.63
2018-08-03T01:51:53.875Z,11.20
2018-08-03T01:54:21.045Z,10.65
2018-08-03T01:56:48.212Z,10.88
2018-08-03T01:59:15.393Z,11.60
2018-08-03T02:01:42.564Z,11.22
2018-08-03T02:04:09.728Z,11.08
2018-08-03T02:06:36.892Z,10.90
2018-08-03T02:09:05.953Z,11.78
2018-08-03T02:11:33.104Z,10.60
2018-08-03T02:14:00.276Z,10.65
2018-08-03T02:16:27.477Z,11.20
2018-08-03T02:18:54.635Z,10.20
2018-08-03T02:21:21.783Z,11.48
2018-08-03T02:23:48.956Z,10.80
2018-08-03T02:26:16.111Z,11.55
2018-08-03T02:28:43.327Z,10.85
2018-08-03T02:31:10.493Z,11.53
2018-08-03T02:33:37.646Z,10.23
2018-08-03T02:36:04.813Z,11.93
2018-08-03T02:38:31.991Z,12.15
2018-08-03T02:40:59.182Z,13.80
2018-08-03T02:43:26.565Z,12.50
2018-08-03T02:45:53.739Z,11.38
2018-08-03T02:48:20.899Z,10.85
2018-08-03T02:50:48.186Z,11.78
2018-08-03T02:53:15.348Z,12.40
2018-08-03T02:55:42.589Z,11.43
2018-08-03T02:58:09.850Z,10.50
2018-08-03T03:00:37.148Z,12.50
2018-08-03T03:03:04.308Z,19.77
2018-08-03T03:05:31.476Z,10.90
2018-08-03T03:07:58.655Z,10.25
2018-08-03T03:10:25.826Z,10.68
2018-08-03T03:12:53.068Z,12.40
2018-08-03T03:15:20.243Z,11.40
2018-08-03T03:17:47.421Z,12.85
2018-08-03T03:20:14.598Z,13.13
2018-08-03T03:22:41.928Z,13.72
2018-08-03T03:25:09.139Z,11.93
2018-08-03T03:27:36.300Z,11.88
2018-08-03T03:30:03.653Z,12.18
2018-08-03T03:32:30.834Z,12.45
2018-08-03T03:34:58.012Z,12.70
2018-08-03T03:37:25.194Z,11.75
2018-08-03T03:39:52.609Z,12.00
2018-08-03T03:42:19.780Z,12.78
2018-08-03T03:44:46.984Z,12.60
2018-08-03T03:47:14.173Z,14.28
2018-08-03T03:49:41.343Z,14.93
2018-08-03T03:52:08.574Z,12.50
2018-08-03T03:54:35.744Z,12.30
2018-08-03T03:57:02.931Z,13.60
2018-08-03T03:59:30.147Z,13.48
2018-08-03T04:01:57.325Z,16.37
2018-08-03T04:04:24.633Z,15.80
2018-08-03T04:06:51.821Z,12.70
2018-08-03T04:09:18.995Z,12.47
2018-08-03T04:11:46.171Z,12.78
2018-08-03T04:14:13.353Z,14.03
2018-08-03T04:16:40.529Z,13.28
2018-08-03T04:19:07.863Z,13.35
2018-08-03T04:21:35.040Z,13.48
2018-08-03T04:24:02.277Z,12.58
2018-08-03T04:26:29.468Z,12.63
2018-08-03T04:28:56.769Z,15.68
2018-08-03T04:31:23.939Z,13.85
2018-08-03T04:33:51.136Z,17.95
2018-08-03T04:36:18.356Z,13.43
2018-08-03T04:38:45.544Z,12.63
2018-08-03T04:41:12.755Z,12.13
2018-08-03T04:43:39.917Z,12.65
2018-08-03T04:46:07.096Z,15.70
2018-08-03T04:48:34.291Z,11.08
2018-08-03T04:51:01.589Z,12.25
2018-08-03T04:53:28.817Z,15.00
2018-08-03T04:55:56.008Z,14.90
2018-08-03T04:58:23.205Z,13.10
2018-08-03T05:00:50.390Z,12.40
2018-08-03T05:03:17.574Z,12.25
2018-08-03T05:05:44.765Z,12.53
2018-08-03T05:08:11.938Z,12.78
2018-08-03T05:10:39.104Z,11.12
2018-08-03T05:13:06.324Z,13.00
2018-08-03T05:15:33.741Z,14.40
2018-08-03T05:18:00.900Z,11.50
2018-08-03T05:20:28.091Z,11.80
2018-08-03T05:22:55.243Z,15.28
2018-08-03T05:25:22.434Z,12.25
2018-08-03T05:27:49.605Z,12.37
2018-08-03T05:30:16.800Z,12.68
2018-08-03T05:32:44.013Z,13.00
2018-08-03T05:35:11.193Z,12.28
2018-08-03T05:37:38.455Z,11.83
2018-08-03T05:40:05.809Z,11.08
2018-08-03T05:42:33.219Z,10.32
2018-08-03T05:45:00.630Z,12.03
2018-08-03T05:47:27.813Z,11.55
2018-08-03T05:49:54.972Z,11.57
2018-08-03T05:52:22.184Z,13.20
2018-08-03T05:54:49.368Z,12.60
2018-08-03T05:57:16.616Z,12.73
2018-08-03T05:59:43.873Z,10.93
2018-08-03T06:02:11.095Z,11.38
2018-08-03T06:04:38.283Z,11.57
2018-08-03T06:07:05.500Z,14.95
2018-08-03T06:09:32.750Z,11.88
2018-08-03T06:11:59.872Z,10.60
2018-08-03T06:14:27.064Z,10.65
2018-08-03T06:16:54.264Z,11.45
2018-08-03T06:19:21.437Z,14.98
2018-08-03T06:21:48.631Z,11.80
2018-08-03T06:24:15.804Z,11.00
2018-08-03T06:26:43.011Z,10.32
2018-08-03T06:29:10.200Z,14.20
2018-08-03T06:31:37.394Z,17.10
2018-08-03T06:34:04.592Z,9.78
2018-08-03T06:36:31.766Z,11.33
2018-08-03T06:38:58.935Z,10.15
2018-08-03T06:41:26.115Z,12.27
2018-08-03T06:43:53.305Z,11.30
2018-08-03T06:46:20.463Z,10.03
2018-08-03T06:48:47.659Z,10.47
2018-08-03T06:51:14.820Z,14.53
2018-08-03T06:53:42.019Z,9.33
2018-08-03T06:56:09.192Z,10.10
2018-08-03T06:58:36.403Z,9.17
2018-08-03T07:01:03.562Z,9.83
2018-08-03T07:03:30.727Z,10.20
2018-08-03T07:05:57.880Z,13.07
2018-08-03T07:08:25.090Z,10.57
2018-08-03T07:10:52.227Z,9.93
2018-08-03T07:13:19.396Z,10.60
2018-08-03T07:15:46.557Z,9.40
2018-08-03T07:18:13.740Z,9.83
2018-08-03T07:20:40.906Z,11.10
2018-08-03T07:23:08.082Z,10.97
2018-08-03T07:25:35.253Z,11.67
2018-08-03T07:28:02.446Z,11.93
2018-08-03T07:30:29.608Z,9.87
2018-08-03T07:32:56.788Z,10.97
2018-08-03T07:35:23.963Z,12.97
2018-08-03T07:37:51.175Z,12.47
2018-08-03T07:40:18.361Z,13.67
2018-08-03T07:42:45.724Z,30.43
2018-08-03T07:45:12.864Z,11.07
2018-08-03T07:47:40.048Z,14.20
2018-08-03T07:50:07.241Z,13.70
2018-08-03T07:52:34.416Z,13.37
2018-08-03T07:55:01.623Z,32.33
2018-08-03T07:57:28.777Z,19.83
2018-08-03T07:59:56.000Z,13.20
2018-08-03T08:02:23.160Z,17.90
2018-08-03T08:04:50.503Z,14.53
2018-08-03T08:07:17.757Z,11.23
2018-08-03T08:09:44.968Z,15.80
2018-08-03T08:12:12.123Z,13.00
2018-08-03T08:14:39.291Z,17.00
2018-08-03T08:17:06.480Z,30.23
2018-08-03T08:19:33.673Z,16.87
2018-08-03T08:22:00.844Z,11.63
2018-08-03T08:24:28.053Z,11.83
2018-08-03T08:26:55.245Z,11.27
2018-08-03T08:29:22.615Z,12.27
2018-08-03T08:31:49.813Z,12.50
2018-08-03T08:34:17.004Z,12.00
2018-08-03T08:36:44.201Z,14.07
2018-08-03T08:39:12.975Z,11.77
2018-08-03T08:41:40.756Z,12.60
2018-08-03T08:44:07.970Z,16.70
2018-08-03T08:46:35.426Z,15.87
2018-08-03T08:49:03.004Z,13.17
2018-08-03T08:51:30.159Z,14.47
2018-08-03T08:53:57.421Z,12.57
2018-08-03T08:56:24.612Z,12.23
2018-08-03T08:58:51.821Z,12.23
2018-08-03T09:01:19.077Z,18.03
2018-08-03T09:03:46.193Z,18.07
2018-08-03T09:06:13.671Z,12.53
2018-08-03T09:08:40.878Z,15.43
2018-08-03T09:11:08.385Z,13.03
2018-08-03T09:13:35.577Z,14.17
2018-08-03T09:16:02.765Z,14.70
2018-08-03T09:18:29.999Z,12.50
2018-08-03T09:20:57.136Z,14.33
2018-08-03T09:23:24.328Z,14.37
2018-08-03T09:25:51.517Z,13.70
2018-08-03T09:28:18.722Z,16.47
2018-08-03T09:30:45.905Z,13.43
2018-08-03T09:33:13.113Z,13.70
2018-08-03T09:35:40.297Z,12.40
2018-08-03T09:38:07.494Z,15.20
2018-08-03T09:40:34.699Z,12.43
2018-08-03T09:43:01.895Z,13.33
2018-08-03T09:45:29.084Z,13.07
2018-08-03T09:47:56.356Z,13.23
2018-08-03T09:50:23.511Z,13.03
2018-08-03T09:52:50.923Z,13.40
2018-08-03T09:55:18.132Z,16.30
2018-08-03T09:57:45.316Z,12.23
2018-08-03T10:00:15.446Z,16.00
2018-08-03T10:02:42.666Z,14.03
2018-08-03T10:05:09.848Z,18.23
2018-08-03T10:07:37.099Z,16.93
2018-08-03T10:10:04.703Z,13.67
2018-08-03T10:12:31.911Z,13.53
2018-08-03T10:14:59.077Z,13.90
2018-08-03T10:17:26.247Z,13.83
2018-08-03T10:19:53.415Z,13.23
2018-08-03T10:22:20.634Z,11.67
2018-08-03T10:24:47.798Z,13.03
2018-08-03T10:27:14.990Z,13.70
2018-08-03T10:29:42.214Z,12.87
2018-08-03T10:32:09.435Z,12.47
2018-08-03T10:34:36.621Z,12.20
2018-08-03T10:37:03.818Z,15.60
2018-08-03T10:39:30.975Z,14.43
2018-08-03T10:41:58.309Z,12.03
2018-08-03T10:44:25.514Z,10.50
2018-08-03T10:46:52.697Z,13.07
2018-08-03T10:49:19.874Z,12.87
2018-08-03T10:51:47.122Z,11.97
2018-08-03T10:54:14.304Z,11.43
2018-08-03T10:56:41.492Z,12.10
2018-08-03T10:59:08.660Z,13.03
2018-08-03T11:01:35.935Z,13.10
2018-08-03T11:04:03.176Z,11.63
2018-08-03T11:06:30.344Z,14.37
2018-08-03T11:08:57.526Z,12.60
2018-08-03T11:11:24.729Z,11.40
2018-08-03T11:13:51.912Z,11.80
2018-08-03T11:16:19.089Z,11.67
2018-08-03T11:18:46.292Z,11.13
2018-08-03T11:21:13.468Z,11.57
2018-08-03T11:23:40.619Z,10.23
2018-08-03T11:26:07.804Z,12.13
2018-08-03T11:28:34.963Z,11.73
2018-08-03T11:31:02.137Z,12.60
2018-08-03T11:33:29.327Z,14.60
2018-08-03T11:35:56.496Z,11.43
2018-08-03T11:38:23.668Z,11.47
2018-08-03T11:40:50.988Z,12.10
2018-08-03T11:43:18.153Z,11.67
2018-08-03T11:45:45.329Z,9.80
2018-08-03T11:48:12.525Z,11.37
2018-08-03T11:50:39.687Z,10.00
2018-08-03T11:53:06.863Z,9.40
2018-08-03T11:55:34.047Z,10.20
2018-08-03T11:58:01.232Z,9.73
2018-08-03T12:00:28.576Z,15.40
2018-08-03T12:02:56.047Z,11.97
2018-08-03T12:05:23.375Z,9.10
2018-08-03T12:07:50.653Z,10.50
2018-08-03T12:10:17.823Z,9.60
2018-08-03T12:12:45.005Z,8.83
2018-08-03T12:15:12.184Z,9.17
2018-08-03T12:17:39.351Z,9.80
2018-08-03T12:20:06.519Z,7.80
2018-08-03T12:22:33.696Z,7.73
2018-08-03T12:25:00.865Z,7.90
2018-08-03T12:27:28.041Z,8.37
2018-08-03T12:29:55.215Z,9.33
2018-08-03T12:32:22.409Z,7.63
2018-08-03T12:34:49.581Z,7.10
2018-08-03T12:37:16.754Z,7.40
2018-08-03T12:39:43.957Z,8.07
2018-08-03T12:42:11.125Z,7.30
2018-08-03T12:44:38.298Z,7.60
2018-08-03T12:47:05.520Z,8.30
2018-08-03T12:49:32.703Z,7.10
2018-08-03T12:51:59.888Z,8.40
2018-08-03T12:54:27.069Z,7.17
2018-08-03T12:56:54.245Z,8.20
2018-08-03T12:59:21.417Z,8.27
2018-08-03T13:01:48.895Z,7.40
2018-08-03T13:04:16.091Z,7.60
2018-08-03T13:06:43.264Z,7.40
2018-08-03T13:09:10.501Z,7.63
2018-08-03T13:11:38.651Z,8.17
2018-08-03T13:14:05.825Z,10.17
2018-08-03T13:16:33.081Z,7.37
2018-08-03T13:19:00.260Z,8.23
2018-08-03T13:21:34.872Z,9.33
2018-08-03T13:24:02.426Z,7.90
2018-08-03T13:26:29.602Z,9.27
2018-08-03T13:28:57.607Z,10.43
2018-08-03T13:31:25.922Z,9.63
2018-08-03T13:33:53.105Z,9.13
2018-08-03T13:36:20.885Z,7.80
2018-08-03T13:38:48.016Z,7.23
2018-08-03T13:41:16.062Z,8.70
2018-08-03T13:43:43.401Z,8.40
2018-08-03T13:46:10.580Z,6.83
2018-08-03T13:48:37.740Z,6.57
2018-08-03T13:51:05.066Z,6.80
2018-08-03T13:53:32.326Z,6.70
2018-08-03T13:55:59.495Z,6.60
2018-08-03T13:58:26.808Z,6.60
2018-08-03T14:00:59.764Z,7.70
2018-08-03T14:03:26.937Z,7.17
2018-08-03T14:05:54.109Z,6.73
2018-08-03T14:08:21.285Z,7.00
2018-08-03T14:10:48.464Z,5.10
2018-08-03T14:13:15.657Z,5.90
2018-08-03T14:15:42.853Z,6.37
2018-08-03T14:18:10.035Z,6.93
2018-08-03T14:20:37.231Z,6.23
2018-08-03T14:23:04.445Z,7.03
2018-08-03T14:25:31.657Z,6.10
2018-08-03T14:27:58.824Z,6.53
2018-08-03T14:30:26.123Z,6.87
2018-08-03T14:32:53.304Z,7.50
2018-08-03T14:35:20.479Z,6.03
2018-08-03T14:37:47.672Z,6.03
2018-08-03T14:40:14.888Z,6.23
2018-08-03T14:42:42.058Z,6.70
2018-08-03T14:45:09.253Z,6.47
2018-08-03T14:47:36.435Z,7.03
2018-08-03T14:50:03.826Z,6.20
2018-08-03T14:52:31.030Z,5.43
2018-08-03T14:54:58.232Z,5.57
2018-08-03T14:57:25.431Z,6.93
2018-08-03T14:59:52.610Z,6.27
2018-08-03T15:02:19.804Z,10.60
2018-08-03T15:04:46.992Z,5.83
2018-08-03T15:07:14.177Z,6.00
2018-08-03T15:09:41.365Z,6.60
2018-08-03T15:12:08.543Z,8.80
2018-08-03T15:14:35.733Z,5.83
2018-08-03T15:17:02.896Z,5.90
2018-08-03T15:19:30.171Z,6.00
2018-08-03T15:21:57.344Z,7.60
2018-08-03T15:24:24.515Z,6.13
2018-08-03T15:26:51.696Z,6.27
2018-08-03T15:29:18.864Z,7.67
2018-08-03T15:31:46.029Z,6.43
2018-08-03T15:34:13.201Z,7.00
2018-08-03T15:36:40.380Z,6.33
2018-08-03T15:39:08.368Z,6.90
2018-08-03T15:41:35.549Z,6.80
2018-08-03T15:44:02.727Z,6.60
2018-08-03T15:46:29.953Z,7.90
2018-08-03T15:48:57.109Z,6.53
2018-08-03T15:51:24.309Z,5.30
2018-08-03T15:53:51.495Z,6.00
2018-08-03T15:56:18.683Z,5.50
2018-08-03T15:58:45.929Z,6.00
2018-08-03T16:01:13.073Z,5.83
2018-08-03T16:03:40.244Z,6.00
2018-08-03T16:06:07.416Z,5.93
2018-08-03T16:08:34.592Z,5.40
2018-08-03T16:11:01.788Z,6.03
2018-08-03T16:13:29.020Z,6.93
2018-08-03T16:15:56.171Z,6.03
2018-08-03T16:18:23.374Z,5.57
2018-08-03T16:20:50.543Z,9.57
2018-08-03T16:23:17.727Z,7.30
2018-08-03T16:25:44.911Z,8.07
2018-08-03T16:28:12.091Z,7.33
2018-08-03T16:30:39.335Z,7.17
2018-08-03T16:33:06.531Z,6.60
2018-08-03T16:35:33.765Z,6.67
2018-08-03T16:38:00.925Z,7.10
2018-08-03T16:40:28.152Z,7.67
2018-08-03T16:42:55.315Z,7.67
2018-08-03T16:45:22.494Z,8.03
2018-08-03T16:47:49.663Z,8.33
2018-08-03T16:50:16.836Z,7.13
2018-08-03T16:52:44.013Z,10.17
2018-08-03T16:55:11.183Z,8.00
2018-08-03T16:57:38.413Z,9.13
2018-08-03T17:00:06.056Z,8.30
2018-08-03T17:02:33.245Z,8.60
2018-08-03T17:05:00.593Z,8.50
2018-08-03T17:07:27.768Z,15.10
2018-08-03T17:09:54.968Z,9.10
2018-08-03T17:12:22.146Z,8.60
2018-08-03T17:14:49.315Z,10.40
2018-08-03T17:17:16.502Z,9.23
2018-08-03T17:19:43.714Z,9.03
2018-08-03T17:22:11.114Z,15.80
2018-08-03T17:24:38.360Z,9.17
2018-08-03T17:27:05.524Z,9.60
2018-08-03T17:29:32.721Z,10.40
2018-08-03T17:31:59.902Z,12.47
2018-08-03T17:34:27.120Z,14.87
2018-08-03T17:36:54.412Z,12.53
2018-08-03T17:39:21.536Z,10.80
2018-08-03T17:41:48.708Z,12.40
2018-08-03T17:44:15.957Z,11.07
2018-08-03T17:46:43.157Z,12.77
2018-08-03T17:49:10.318Z,12.57
2018-08-03T17:51:37.541Z,11.60
2018-08-03T17:54:04.728Z,14.23
2018-08-03T17:56:31.909Z,16.60
2018-08-03T17:58:59.097Z,12.37
2018-08-03T18:01:26.272Z,12.23
2018-08-03T18:03:53.459Z,12.30
2018-08-03T18:06:21.019Z,14.50
2018-08-03T18:08:48.197Z,13.40
2018-08-03T18:11:15.388Z,13.77
2018-08-03T18:13:42.593Z,12.27
2018-08-03T18:16:10.336Z,13.37
2018-08-03T18:18:37.508Z,12.50
2018-08-03T18:21:04.702Z,10.80
2018-08-03T18:23:31.887Z,11.40
2018-08-03T18:25:59.072Z,11.33
2018-08-03T18:28:26.497Z,12.63
2018-08-03T18:30:53.684Z,12.03
2018-08-03T18:33:20.861Z,13.80
2018-08-03T18:35:48.056Z,12.43
2018-08-03T18:38:15.245Z,12.27
2018-08-03T18:40:42.415Z,13.07
2018-08-03T18:43:09.573Z,11.57
2018-08-03T18:45:36.780Z,11.50
2018-08-03T18:48:03.943Z,14.00
2018-08-03T18:50:31.111Z,12.00
2018-08-03T18:52:58.325Z,12.73
2018-08-03T18:55:25.517Z,14.23
2018-08-03T18:57:52.699Z,12.67
2018-08-03T19:00:19.877Z,13.70
2018-08-03T19:02:47.052Z,13.73
2018-08-03T19:05:14.289Z,14.17
2018-08-03T19:07:41.510Z,16.07
2018-08-03T19:10:08.739Z,13.13
2018-08-03T19:12:35.877Z,11.97
2018-08-03T19:15:03.056Z,15.20
2018-08-03T19:17:30.360Z,14.00
2018-08-03T19:19:57.579Z,16.83
2018-08-03T19:22:24.753Z,16.30
2018-08-03T19:24:51.958Z,16.00
2018-08-03T19:27:19.120Z,15.57
2018-08-03T19:29:46.299Z,14.03
2018-08-03T19:32:13.501Z,14.23
2018-08-03T19:34:40.848Z,13.00
2018-08-03T19:37:08.029Z,14.63
2018-08-03T19:39:35.227Z,15.57
2018-08-03T19:42:02.404Z,13.00
2018-08-03T19:44:29.598Z,13.27
2018-08-03T19:46:56.827Z,13.83
2018-08-03T19:51:57.705Z,12.17
2018-08-03T19:54:24.874Z,15.27
2018-08-03T19:56:52.188Z,14.03
2018-08-03T19:59:19.411Z,14.30
2018-08-03T20:01:46.600Z,15.70
2018-08-03T20:04:13.777Z,14.10
2018-08-03T20:06:41.011Z,14.70
2018-08-03T20:09:09.540Z,14.27
2018-08-03T20:11:36.731Z,14.10
2018-08-03T20:14:03.930Z,13.77
2018-08-03T20:16:31.109Z,15.87
2018-08-03T20:18:58.314Z,14.10
2018-08-03T20:21:25.497Z,15.20
2018-08-03T20:23:52.690Z,15.17
2018-08-03T20:26:19.880Z,13.57
2018-08-03T20:28:47.056Z,13.40
2018-08-03T20:31:14.256Z,13.20
2018-08-03T20:33:41.424Z,13.17
2018-08-03T20:36:08.663Z,15.13
2018-08-03T20:38:35.856Z,13.60
2018-08-03T20:41:03.031Z,16.70
2018-08-03T20:43:30.233Z,11.83
2018-08-03T20:45:57.453Z,13.40
2018-08-03T20:48:24.621Z,12.13
2018-08-03T20:50:51.825Z,12.97
2018-08-03T20:53:18.998Z,13.73
2018-08-03T20:55:46.209Z,13.17
2018-08-03T20:58:13.396Z,13.70
2018-08-03T21:00:40.597Z,12.77
2018-08-03T21:03:07.788Z,12.20
2018-08-03T21:05:35.013Z,12.30
2018-08-03T21:08:02.192Z,12.83
2018-08-03T21:10:29.375Z,14.03
2018-08-03T21:12:56.585Z,13.83
2018-08-03T21:15:23.789Z,13.13
2018-08-03T21:17:50.973Z,15.40
2018-08-03T21:20:18.165Z,13.07
2018-08-03T21:22:45.345Z,16.03
2018-08-03T21:25:12.517Z,12.30
2018-08-03T21:27:39.704Z,13.63
2018-08-03T21:30:07.740Z,12.37
2018-08-03T21:32:34.897Z,13.90
2018-08-03T21:35:02.452Z,14.43
2018-08-03T21:37:29.657Z,13.77
2018-08-03T21:39:56.900Z,19.93
2018-08-03T21:42:24.068Z,13.80
2018-08-03T21:44:51.256Z,14.60
2018-08-03T21:47:18.452Z,14.17
2018-08-03T21:49:45.656Z,15.73
2018-08-03T21:52:12.839Z,15.63
2018-08-03T21:54:40.009Z,11.80
2018-08-03T21:57:07.210Z,12.70
2018-08-03T21:59:34.383Z,13.37
2018-08-03T22:02:01.565Z,12.37
2018-08-03T22:04:28.741Z,13.43
2018-08-03T22:06:55.912Z,15.60
2018-08-03T22:09:23.080Z,14.97
2018-08-03T22:11:50.255Z,13.33
2018-08-03T22:14:17.467Z,13.10
2018-08-03T22:16:44.641Z,12.57
2018-08-03T22:19:11.828Z,14.30
2018-08-03T22:21:38.999Z,14.50
2018-08-03T22:24:06.204Z,14.23
2018-08-03T22:26:33.383Z,18.73
2018-08-03T22:29:00.565Z,14.00
2018-08-03T22:31:27.839Z,14.30
2018-08-03T22:33:55.018Z,14.37
2018-08-03T22:36:22.184Z,13.90
2018-08-03T22:38:49.336Z,14.60
2018-08-03T22:41:16.526Z,15.73
2018-08-03T22:43:43.708Z,14.80
2018-08-03T22:46:10.884Z,15.20
2018-08-03T22:48:38.088Z,16.37
2018-08-03T22:51:05.271Z,13.80
2018-08-03T22:53:32.435Z,15.93
2018-08-03T22:55:59.633Z,13.95
2018-08-03T22:58:26.811Z,13.70
2018-08-03T23:00:54.016Z,19.12
2018-08-03T23:03:21.155Z,15.33
2018-08-03T23:05:48.362Z,14.13
2018-08-03T23:08:15.628Z,16.07
2018-08-03T23:10:42.716Z,14.20
2018-08-03T23:13:09.894Z,15.43
2018-08-03T23:15:37.089Z,16.40
2018-08-03T23:18:04.456Z,16.00
2018-08-03T23:20:31.738Z,18.32
2018-08-03T23:22:58.924Z,15.90
2018-08-03T23:25:26.114Z,15.20
2018-08-03T23:27:53.352Z,20.65
2018-08-03T23:30:20.549Z,16.40
2018-08-03T23:32:47.771Z,15.83
2018-08-03T23:35:14.959Z,16.75
2018-08-03T23:37:42.157Z,15.85
2018-08-03T23:40:09.333Z,15.60
2018-08-03T23:42:36.804Z,18.10
2018-08-03T23:45:04.134Z,18.05
2018-08-03T23:47:31.362Z,21.33
2018-08-03T23:49:58.704Z,18.45
2018-08-03T23:52:25.880Z,18.30
2018-08-03T23:54:53.109Z,18.40
2018-08-03T23:57:20.408Z,19.02
2018-08-03T23:59:47.581Z,18.02
